sensor_id;sensor_type;location;lat;lon;timestamp;P1;durP1;ratioP1;P2;durP2;ratioP2
63010;SDS011;49100;48.842;2.166;2023-02-26T00:00:26;17.75;;;13.25;;
63010;SDS011;49100;48.842;2.166;2023-02-26T00:03:10;20.25;;;15.25;;
63010;SDS011;49100;48.842;2.166;2023-02-26T00:05:58;19.25;;;11.50;;
63010;SDS011;49100;48.842;2.166;2023-02-26T00:08:42;15.00;;;13.25;;
63010;SDS011;49100;48.842;2.166;2023-02-26T00:11:26;16.00;;;13.50;;
63010;SDS011;49100;48.842;2.166;2023-02-26T00:14:12;17.75;;;12.00;;
63010;SDS011;49100;48.842;2.166;2023-02-26T00:20:00;18.25;;;13.00;;
63010;SDS011;49100;48.842;2.166;2023-02-26T00:22:44;14.50;;;13.50;;
63010;SDS011;49100;48.842;2.166;2023-02-26T00:25:29;16.25;;;12.00;;
63010;SDS011;49100;48.842;2.166;2023-02-26T00:28:13;18.25;;;12.75;;
63010;SDS011;49100;48.842;2.166;2023-02-26T00:30:58;20.25;;;17.50;;
63010;SDS011;49100;48.842;2.166;2023-02-26T00:33:42;19.25;;;15.25;;
63010;SDS011;49100;48.842;2.166;2023-02-26T00:36:36;13.00;;;13.00;;
63010;SDS011;49100;48.842;2.166;2023-02-26T00:39:33;7.75;;;5.50;;
63010;SDS011;49100;48.842;2.166;2023-02-26T00:42:19;12.25;;;6.25;;
63010;SDS011;49100;48.842;2.166;2023-02-26T00:45:03;11.75;;;5.50;;
63010;SDS011;49100;48.842;2.166;2023-02-26T00:47:50;9.00;;;6.75;;
63010;SDS011;49100;48.842;2.166;2023-02-26T00:50:35;6.75;;;5.00;;
63010;SDS011;49100;48.842;2.166;2023-02-26T00:54:02;9.00;;;6.25;;
63010;SDS011;49100;48.842;2.166;2023-02-26T00:56:26;8.00;;;6.00;;
63010;SDS011;49100;48.842;2.166;2023-02-26T00:59:11;5.50;;;4.00;;
63010;SDS011;49100;48.842;2.166;2023-02-26T01:01:55;9.50;;;7.00;;
63010;SDS011;49100;48.842;2.166;2023-02-26T01:04:40;7.50;;;6.50;;
63010;SDS011;49100;48.842;2.166;2023-02-26T01:07:24;11.75;;;9.75;;
63010;SDS011;49100;48.842;2.166;2023-02-26T01:10:10;11.00;;;6.00;;
63010;SDS011;49100;48.842;2.166;2023-02-26T01:12:54;14.00;;;9.25;;
63010;SDS011;49100;48.842;2.166;2023-02-26T01:15:39;8.75;;;7.75;;
63010;SDS011;49100;48.842;2.166;2023-02-26T01:18:29;9.25;;;7.25;;
63010;SDS011;49100;48.842;2.166;2023-02-26T01:21:16;13.25;;;9.00;;
63010;SDS011;49100;48.842;2.166;2023-02-26T01:24:03;13.00;;;10.50;;
63010;SDS011;49100;48.842;2.166;2023-02-26T01:26:48;13.25;;;9.00;;
63010;SDS011;49100;48.842;2.166;2023-02-26T01:29:33;9.50;;;9.50;;
63010;SDS011;49100;48.842;2.166;2023-02-26T01:32:29;13.25;;;8.25;;
63010;SDS011;49100;48.842;2.166;2023-02-26T01:35:39;14.25;;;10.75;;
63010;SDS011;49100;48.842;2.166;2023-02-26T01:41:25;10.50;;;9.00;;
63010;SDS011;49100;48.842;2.166;2023-02-26T01:47:09;14.00;;;10.25;;
63010;SDS011;49100;48.842;2.166;2023-02-26T01:49:57;13.75;;;11.25;;
63010;SDS011;49100;48.842;2.166;2023-02-26T01:55:32;16.00;;;14.00;;
63010;SDS011;49100;48.842;2.166;2023-02-26T01:58:16;16.25;;;13.50;;
63010;SDS011;49100;48.842;2.166;2023-02-26T02:01:01;16.50;;;12.00;;
63010;SDS011;49100;48.842;2.166;2023-02-26T02:03:46;17.50;;;13.00;;
63010;SDS011;49100;48.842;2.166;2023-02-26T02:06:30;18.75;;;13.75;;
63010;SDS011;49100;48.842;2.166;2023-02-26T02:09:14;18.00;;;16.50;;
63010;SDS011;49100;48.842;2.166;2023-02-26T02:12:05;29.25;;;18.75;;
63010;SDS011;49100;48.842;2.166;2023-02-26T02:14:54;24.50;;;17.75;;
63010;SDS011;49100;48.842;2.166;2023-02-26T02:20:46;19.00;;;15.75;;
63010;SDS011;49100;48.842;2.166;2023-02-26T02:23:46;22.50;;;13.00;;
63010;SDS011;49100;48.842;2.166;2023-02-26T02:32:27;29.00;;;18.00;;
63010;SDS011;49100;48.842;2.166;2023-02-26T02:40:50;28.00;;;18.00;;
63010;SDS011;49100;48.842;2.166;2023-02-26T02:43:36;24.00;;;15.50;;
63010;SDS011;49100;48.842;2.166;2023-02-26T02:46:22;22.25;;;17.25;;
63010;SDS011;49100;48.842;2.166;2023-02-26T02:49:13;26.25;;;20.00;;
63010;SDS011;49100;48.842;2.166;2023-02-26T02:52:01;18.75;;;16.25;;
63010;SDS011;49100;48.842;2.166;2023-02-26T02:57:38;22.50;;;17.75;;
63010;SDS011;49100;48.842;2.166;2023-02-26T03:00:26;25.25;;;15.75;;
63010;SDS011;49100;48.842;2.166;2023-02-26T03:05:55;20.00;;;18.25;;
63010;SDS011;49100;48.842;2.166;2023-02-26T03:08:40;29.00;;;18.50;;
63010;SDS011;49100;48.842;2.166;2023-02-26T03:11:24;21.75;;;17.75;;
63010;SDS011;49100;48.842;2.166;2023-02-26T03:14:08;18.75;;;13.75;;
63010;SDS011;49100;48.842;2.166;2023-02-26T03:25:55;27.25;;;17.75;;
63010;SDS011;49100;48.842;2.166;2023-02-26T03:28:51;19.00;;;13.25;;
63010;SDS011;49100;48.842;2.166;2023-02-26T03:34:36;14.50;;;12.25;;
63010;SDS011;49100;48.842;2.166;2023-02-26T03:40:11;19.25;;;14.75;;
63010;SDS011;49100;48.842;2.166;2023-02-26T03:43:01;18.50;;;14.75;;
63010;SDS011;49100;48.842;2.166;2023-02-26T03:45:48;17.00;;;14.50;;
63010;SDS011;49100;48.842;2.166;2023-02-26T03:48:34;18.50;;;14.50;;
63010;SDS011;49100;48.842;2.166;2023-02-26T03:51:19;20.00;;;14.00;;
63010;SDS011;49100;48.842;2.166;2023-02-26T03:54:05;15.25;;;14.25;;
63010;SDS011;49100;48.842;2.166;2023-02-26T03:56:51;18.75;;;16.75;;
63010;SDS011;49100;48.842;2.166;2023-02-26T03:59:35;18.25;;;14.00;;
63010;SDS011;49100;48.842;2.166;2023-02-26T04:02:31;18.75;;;13.75;;
63010;SDS011;49100;48.842;2.166;2023-02-26T04:05:18;16.25;;;14.50;;
63010;SDS011;49100;48.842;2.166;2023-02-26T04:08:04;16.50;;;15.50;;
63010;SDS011;49100;48.842;2.166;2023-02-26T04:13:36;17.75;;;14.75;;
63010;SDS011;49100;48.842;2.166;2023-02-26T04:16:20;25.00;;;17.75;;
63010;SDS011;49100;48.842;2.166;2023-02-26T04:19:05;19.25;;;14.50;;
63010;SDS011;49100;48.842;2.166;2023-02-26T04:21:49;24.75;;;15.00;;
63010;SDS011;49100;48.842;2.166;2023-02-26T04:24:33;24.75;;;19.25;;
63010;SDS011;49100;48.842;2.166;2023-02-26T04:27:17;23.50;;;19.00;;
63010;SDS011;49100;48.842;2.166;2023-02-26T04:30:02;22.25;;;17.75;;
63010;SDS011;49100;48.842;2.166;2023-02-26T04:32:46;18.75;;;16.50;;
63010;SDS011;49100;48.842;2.166;2023-02-26T04:35:31;22.50;;;18.25;;
63010;SDS011;49100;48.842;2.166;2023-02-26T04:38:16;24.00;;;18.75;;
63010;SDS011;49100;48.842;2.166;2023-02-26T04:41:00;23.00;;;19.00;;
63010;SDS011;49100;48.842;2.166;2023-02-26T04:43:44;19.50;;;19.25;;
63010;SDS011;49100;48.842;2.166;2023-02-26T04:46:29;33.50;;;20.25;;
63010;SDS011;49100;48.842;2.166;2023-02-26T04:49:13;29.25;;;21.25;;
63010;SDS011;49100;48.842;2.166;2023-02-26T04:51:57;35.00;;;23.25;;
63010;SDS011;49100;48.842;2.166;2023-02-26T04:54:42;23.75;;;21.75;;
63010;SDS011;49100;48.842;2.166;2023-02-26T04:57:26;29.50;;;20.00;;
63010;SDS011;49100;48.842;2.166;2023-02-26T05:00:11;27.75;;;23.00;;
63010;SDS011;49100;48.842;2.166;2023-02-26T05:02:56;29.50;;;20.00;;
63010;SDS011;49100;48.842;2.166;2023-02-26T05:05:40;30.25;;;22.00;;
63010;SDS011;49100;48.842;2.166;2023-02-26T05:08:25;24.50;;;21.50;;
63010;SDS011;49100;48.842;2.166;2023-02-26T05:11:09;22.50;;;19.25;;
63010;SDS011;49100;48.842;2.166;2023-02-26T05:13:54;27.75;;;21.75;;
63010;SDS011;49100;48.842;2.166;2023-02-26T05:16:38;21.25;;;16.00;;
63010;SDS011;49100;48.842;2.166;2023-02-26T05:19:23;22.50;;;16.25;;
63010;SDS011;49100;48.842;2.166;2023-02-26T05:22:07;22.75;;;17.75;;
63010;SDS011;49100;48.842;2.166;2023-02-26T05:24:51;24.25;;;15.75;;
63010;SDS011;49100;48.842;2.166;2023-02-26T05:27:36;16.50;;;15.25;;
63010;SDS011;49100;48.842;2.166;2023-02-26T05:30:20;17.00;;;15.75;;
63010;SDS011;49100;48.842;2.166;2023-02-26T05:33:05;19.00;;;14.00;;
63010;SDS011;49100;48.842;2.166;2023-02-26T05:35:49;20.75;;;15.50;;
63010;SDS011;49100;48.842;2.166;2023-02-26T05:38:34;16.00;;;14.50;;
63010;SDS011;49100;48.842;2.166;2023-02-26T05:41:18;19.50;;;16.00;;
63010;SDS011;49100;48.842;2.166;2023-02-26T05:44:03;19.50;;;15.75;;
63010;SDS011;49100;48.842;2.166;2023-02-26T05:46:47;19.75;;;15.50;;
63010;SDS011;49100;48.842;2.166;2023-02-26T05:49:32;18.25;;;14.75;;
63010;SDS011;49100;48.842;2.166;2023-02-26T05:52:16;20.50;;;13.25;;
63010;SDS011;49100;48.842;2.166;2023-02-26T05:55:01;19.25;;;12.50;;
63010;SDS011;49100;48.842;2.166;2023-02-26T05:57:45;19.25;;;13.00;;
63010;SDS011;49100;48.842;2.166;2023-02-26T06:00:29;25.50;;;17.25;;
63010;SDS011;49100;48.842;2.166;2023-02-26T06:03:14;22.00;;;15.00;;
63010;SDS011;49100;48.842;2.166;2023-02-26T06:05:58;22.25;;;16.50;;
63010;SDS011;49100;48.842;2.166;2023-02-26T06:08:43;15.25;;;13.25;;
63010;SDS011;49100;48.842;2.166;2023-02-26T06:11:28;25.50;;;18.25;;
63010;SDS011;49100;48.842;2.166;2023-02-26T06:14:13;23.00;;;15.75;;
63010;SDS011;49100;48.842;2.166;2023-02-26T06:16:57;16.25;;;13.50;;
63010;SDS011;49100;48.842;2.166;2023-02-26T06:19:41;15.50;;;14.00;;
63010;SDS011;49100;48.842;2.166;2023-02-26T06:22:26;18.00;;;12.25;;
63010;SDS011;49100;48.842;2.166;2023-02-26T06:25:10;20.25;;;16.00;;
63010;SDS011;49100;48.842;2.166;2023-02-26T06:27:55;25.75;;;18.00;;
63010;SDS011;49100;48.842;2.166;2023-02-26T06:30:39;26.00;;;17.25;;
63010;SDS011;49100;48.842;2.166;2023-02-26T06:33:23;22.50;;;18.50;;
63010;SDS011;49100;48.842;2.166;2023-02-26T06:36:08;26.25;;;19.25;;
63010;SDS011;49100;48.842;2.166;2023-02-26T06:38:52;21.25;;;17.75;;
63010;SDS011;49100;48.842;2.166;2023-02-26T06:41:37;24.50;;;20.00;;
63010;SDS011;49100;48.842;2.166;2023-02-26T06:44:21;23.25;;;16.25;;
63010;SDS011;49100;48.842;2.166;2023-02-26T06:47:06;27.75;;;20.50;;
63010;SDS011;49100;48.842;2.166;2023-02-26T06:49:50;21.75;;;18.50;;
63010;SDS011;49100;48.842;2.166;2023-02-26T06:52:35;22.00;;;17.50;;
63010;SDS011;49100;48.842;2.166;2023-02-26T06:55:19;22.25;;;18.25;;
63010;SDS011;49100;48.842;2.166;2023-02-26T06:58:04;28.00;;;15.25;;
63010;SDS011;49100;48.842;2.166;2023-02-26T07:00:49;23.50;;;18.00;;
63010;SDS011;49100;48.842;2.166;2023-02-26T07:03:33;20.00;;;17.00;;
63010;SDS011;49100;48.842;2.166;2023-02-26T07:06:18;28.25;;;19.25;;
63010;SDS011;49100;48.842;2.166;2023-02-26T07:09:02;28.75;;;22.50;;
63010;SDS011;49100;48.842;2.166;2023-02-26T07:11:46;28.25;;;21.00;;
63010;SDS011;49100;48.842;2.166;2023-02-26T07:14:31;24.50;;;19.75;;
63010;SDS011;49100;48.842;2.166;2023-02-26T07:17:15;39.25;;;26.50;;
63010;SDS011;49100;48.842;2.166;2023-02-26T07:20:03;35.25;;;27.25;;
63010;SDS011;49100;48.842;2.166;2023-02-26T07:22:53;34.25;;;24.50;;
63010;SDS011;49100;48.842;2.166;2023-02-26T07:25:37;36.50;;;25.00;;
63010;SDS011;49100;48.842;2.166;2023-02-26T07:28:22;25.25;;;18.50;;
63010;SDS011;49100;48.842;2.166;2023-02-26T07:31:07;27.75;;;20.25;;
63010;SDS011;49100;48.842;2.166;2023-02-26T07:33:51;22.00;;;15.50;;
63010;SDS011;49100;48.842;2.166;2023-02-26T07:36:35;26.25;;;19.75;;
63010;SDS011;49100;48.842;2.166;2023-02-26T07:39:20;20.75;;;16.00;;
63010;SDS011;49100;48.842;2.166;2023-02-26T07:42:04;34.75;;;32.00;;
63010;SDS011;49100;48.842;2.166;2023-02-26T07:44:49;43.50;;;33.25;;
63010;SDS011;49100;48.842;2.166;2023-02-26T07:47:33;44.75;;;35.75;;
63010;SDS011;49100;48.842;2.166;2023-02-26T07:50:18;43.75;;;34.00;;
63010;SDS011;49100;48.842;2.166;2023-02-26T07:53:02;45.00;;;36.50;;
63010;SDS011;49100;48.842;2.166;2023-02-26T07:55:47;34.00;;;31.25;;
63010;SDS011;49100;48.842;2.166;2023-02-26T07:58:31;45.50;;;33.50;;
63010;SDS011;49100;48.842;2.166;2023-02-26T08:01:16;33.75;;;26.25;;
63010;SDS011;49100;48.842;2.166;2023-02-26T08:04:00;39.00;;;29.25;;
63010;SDS011;49100;48.842;2.166;2023-02-26T08:06:45;28.25;;;27.25;;
63010;SDS011;49100;48.842;2.166;2023-02-26T08:09:29;34.25;;;27.50;;
63010;SDS011;49100;48.842;2.166;2023-02-26T08:12:13;31.25;;;27.25;;
63010;SDS011;49100;48.842;2.166;2023-02-26T08:14:58;36.75;;;27.50;;
63010;SDS011;49100;48.842;2.166;2023-02-26T08:17:42;30.75;;;25.00;;
63010;SDS011;49100;48.842;2.166;2023-02-26T08:20:27;29.25;;;24.75;;
63010;SDS011;49100;48.842;2.166;2023-02-26T08:23:11;32.50;;;28.50;;
63010;SDS011;49100;48.842;2.166;2023-02-26T08:25:59;32.75;;;29.50;;
63010;SDS011;49100;48.842;2.166;2023-02-26T08:28:44;27.25;;;24.25;;
63010;SDS011;49100;48.842;2.166;2023-02-26T08:31:30;32.25;;;28.25;;
63010;SDS011;49100;48.842;2.166;2023-02-26T08:34:14;35.25;;;29.75;;
63010;SDS011;49100;48.842;2.166;2023-02-26T08:36:59;45.25;;;33.75;;
63010;SDS011;49100;48.842;2.166;2023-02-26T08:39:43;39.50;;;32.75;;
63010;SDS011;49100;48.842;2.166;2023-02-26T08:42:27;53.25;;;39.25;;
63010;SDS011;49100;48.842;2.166;2023-02-26T08:45:12;50.75;;;37.00;;
63010;SDS011;49100;48.842;2.166;2023-02-26T08:47:56;52.50;;;41.25;;
63010;SDS011;49100;48.842;2.166;2023-02-26T08:50:41;49.75;;;39.00;;
63010;SDS011;49100;48.842;2.166;2023-02-26T08:53:25;55.00;;;42.50;;
63010;SDS011;49100;48.842;2.166;2023-02-26T08:56:10;51.75;;;41.00;;
63010;SDS011;49100;48.842;2.166;2023-02-26T08:58:54;55.75;;;42.75;;
63010;SDS011;49100;48.842;2.166;2023-02-26T09:01:39;52.50;;;40.50;;
63010;SDS011;49100;48.842;2.166;2023-02-26T09:04:23;24.75;;;18.50;;
63010;SDS011;49100;48.842;2.166;2023-02-26T09:07:09;27.50;;;24.25;;
63010;SDS011;49100;48.842;2.166;2023-02-26T09:09:53;33.50;;;22.50;;
63010;SDS011;49100;48.842;2.166;2023-02-26T09:12:38;20.75;;;16.75;;
63010;SDS011;49100;48.842;2.166;2023-02-26T09:15:22;22.00;;;18.25;;
63010;SDS011;49100;48.842;2.166;2023-02-26T09:18:07;20.00;;;18.50;;
63010;SDS011;49100;48.842;2.166;2023-02-26T09:20:58;25.50;;;21.00;;
63010;SDS011;49100;48.842;2.166;2023-02-26T09:23:42;20.50;;;15.50;;
63010;SDS011;49100;48.842;2.166;2023-02-26T09:26:26;26.50;;;16.75;;
63010;SDS011;49100;48.842;2.166;2023-02-26T09:29:11;21.25;;;15.25;;
63010;SDS011;49100;48.842;2.166;2023-02-26T09:31:57;20.25;;;15.00;;
63010;SDS011;49100;48.842;2.166;2023-02-26T09:34:41;24.00;;;16.75;;
63010;SDS011;49100;48.842;2.166;2023-02-26T09:37:26;24.50;;;17.00;;
63010;SDS011;49100;48.842;2.166;2023-02-26T09:40:16;20.00;;;16.25;;
63010;SDS011;49100;48.842;2.166;2023-02-26T09:45:47;20.00;;;14.75;;
63010;SDS011;49100;48.842;2.166;2023-02-26T09:48:33;23.00;;;18.75;;
63010;SDS011;49100;48.842;2.166;2023-02-26T09:51:20;26.50;;;19.25;;
63010;SDS011;49100;48.842;2.166;2023-02-26T09:54:11;19.75;;;15.25;;
63010;SDS011;49100;48.842;2.166;2023-02-26T09:56:58;21.25;;;18.50;;
63010;SDS011;49100;48.842;2.166;2023-02-26T09:59:42;23.50;;;18.25;;
63010;SDS011;49100;48.842;2.166;2023-02-26T10:08:04;24.75;;;17.00;;
63010;SDS011;49100;48.842;2.166;2023-02-26T10:14:11;21.25;;;16.50;;
63010;SDS011;49100;48.842;2.166;2023-02-26T10:16:49;15.25;;;13.25;;
63010;SDS011;49100;48.842;2.166;2023-02-26T10:19:36;25.75;;;14.75;;
63010;SDS011;49100;48.842;2.166;2023-02-26T10:22:27;18.75;;;15.25;;
63010;SDS011;49100;48.842;2.166;2023-02-26T10:25:20;22.50;;;17.25;;
63010;SDS011;49100;48.842;2.166;2023-02-26T10:30:56;20.50;;;15.00;;
63010;SDS011;49100;48.842;2.166;2023-02-26T10:39:55;23.75;;;17.25;;
63010;SDS011;49100;48.842;2.166;2023-02-26T10:42:45;23.75;;;14.00;;
63010;SDS011;49100;48.842;2.166;2023-02-26T10:51:18;60.50;;;44.25;;
63010;SDS011;49100;48.842;2.166;2023-02-26T10:54:05;31.25;;;24.25;;
63010;SDS011;49100;48.842;2.166;2023-02-26T10:56:54;22.75;;;19.25;;
63010;SDS011;49100;48.842;2.166;2023-02-26T10:59:49;17.00;;;14.75;;
63010;SDS011;49100;48.842;2.166;2023-02-26T11:02:43;27.75;;;13.75;;
63010;SDS011;49100;48.842;2.166;2023-02-26T11:05:29;25.25;;;17.75;;
63010;SDS011;49100;48.842;2.166;2023-02-26T11:08:17;24.50;;;17.25;;
63010;SDS011;49100;48.842;2.166;2023-02-26T11:11:02;19.75;;;16.00;;
63010;SDS011;49100;48.842;2.166;2023-02-26T11:13:48;18.50;;;14.00;;
63010;SDS011;49100;48.842;2.166;2023-02-26T11:16:32;20.25;;;17.00;;
63010;SDS011;49100;48.842;2.166;2023-02-26T11:19:19;22.25;;;15.50;;
63010;SDS011;49100;48.842;2.166;2023-02-26T11:22:03;19.75;;;16.75;;
63010;SDS011;49100;48.842;2.166;2023-02-26T11:24:49;16.50;;;15.50;;
63010;SDS011;49100;48.842;2.166;2023-02-26T11:27:36;14.50;;;10.75;;
63010;SDS011;49100;48.842;2.166;2023-02-26T11:30:21;20.00;;;15.00;;
63010;SDS011;49100;48.842;2.166;2023-02-26T11:33:19;21.50;;;16.25;;
63010;SDS011;49100;48.842;2.166;2023-02-26T11:36:14;15.75;;;14.00;;
63010;SDS011;49100;48.842;2.166;2023-02-26T11:39:01;17.00;;;14.00;;
63010;SDS011;49100;48.842;2.166;2023-02-26T11:41:47;15.75;;;12.75;;
63010;SDS011;49100;48.842;2.166;2023-02-26T11:47:23;16.75;;;13.25;;
63010;SDS011;49100;48.842;2.166;2023-02-26T11:50:17;15.25;;;14.00;;
63010;SDS011;49100;48.842;2.166;2023-02-26T11:53:04;17.50;;;14.50;;
63010;SDS011;49100;48.842;2.166;2023-02-26T11:55:51;7.75;;;7.75;;
63010;SDS011;49100;48.842;2.166;2023-02-26T11:58:50;16.75;;;13.50;;
63010;SDS011;49100;48.842;2.166;2023-02-26T12:01:35;16.50;;;14.50;;
63010;SDS011;49100;48.842;2.166;2023-02-26T12:04:21;18.00;;;13.00;;
63010;SDS011;49100;48.842;2.166;2023-02-26T12:07:13;22.25;;;15.25;;
63010;SDS011;49100;48.842;2.166;2023-02-26T12:09:57;17.25;;;11.75;;
63010;SDS011;49100;48.842;2.166;2023-02-26T12:18:37;22.00;;;15.00;;
63010;SDS011;49100;48.842;2.166;2023-02-26T12:27:02;12.75;;;12.50;;
63010;SDS011;49100;48.842;2.166;2023-02-26T12:30:02;21.25;;;15.50;;
63010;SDS011;49100;48.842;2.166;2023-02-26T12:33:09;18.50;;;11.75;;
63010;SDS011;49100;48.842;2.166;2023-02-26T13:02:11;14.50;;;12.50;;
63010;SDS011;49100;48.842;2.166;2023-02-26T13:11:01;18.00;;;13.50;;
63010;SDS011;49100;48.842;2.166;2023-02-26T13:19:49;18.00;;;15.50;;
63010;SDS011;49100;48.842;2.166;2023-02-26T13:22:38;18.50;;;12.50;;
63010;SDS011;49100;48.842;2.166;2023-02-26T13:28:45;23.25;;;11.25;;
63010;SDS011;49100;48.842;2.166;2023-02-26T13:37:25;18.25;;;14.00;;
63010;SDS011;49100;48.842;2.166;2023-02-26T13:46:02;20.00;;;12.75;;
63010;SDS011;49100;48.842;2.166;2023-02-26T13:51:48;17.25;;;14.25;;
63010;SDS011;49100;48.842;2.166;2023-02-26T13:54:44;12.25;;;10.75;;
63010;SDS011;49100;48.842;2.166;2023-02-26T14:03:49;17.50;;;11.50;;
63010;SDS011;49100;48.842;2.166;2023-02-26T14:17:49;14.00;;;12.25;;
63010;SDS011;49100;48.842;2.166;2023-02-26T14:20:34;12.75;;;10.25;;
63010;SDS011;49100;48.842;2.166;2023-02-26T14:26:33;13.25;;;11.75;;
63010;SDS011;49100;48.842;2.166;2023-02-26T14:29:20;18.75;;;12.25;;
63010;SDS011;49100;48.842;2.166;2023-02-26T14:34:53;19.00;;;11.50;;
63010;SDS011;49100;48.842;2.166;2023-02-26T14:37:53;20.50;;;14.75;;
63010;SDS011;49100;48.842;2.166;2023-02-26T14:40:48;17.75;;;11.25;;
63010;SDS011;49100;48.842;2.166;2023-02-26T14:43:34;16.50;;;13.25;;
63010;SDS011;49100;48.842;2.166;2023-02-26T14:46:19;23.50;;;14.50;;
63010;SDS011;49100;48.842;2.166;2023-02-26T14:49:05;17.75;;;12.75;;
63010;SDS011;49100;48.842;2.166;2023-02-26T14:57:43;16.50;;;12.75;;
63010;SDS011;49100;48.842;2.166;2023-02-26T15:06:20;17.50;;;11.75;;
63010;SDS011;49100;48.842;2.166;2023-02-26T15:11:56;18.50;;;10.75;;
63010;SDS011;49100;48.842;2.166;2023-02-26T15:24:06;13.00;;;9.50;;
63010;SDS011;49100;48.842;2.166;2023-02-26T15:26:56;14.00;;;11.25;;
63010;SDS011;49100;48.842;2.166;2023-02-26T15:29:43;16.50;;;11.50;;
63010;SDS011;49100;48.842;2.166;2023-02-26T15:32:29;16.50;;;13.25;;
63010;SDS011;49100;48.842;2.166;2023-02-26T15:35:15;28.50;;;14.25;;
63010;SDS011;49100;48.842;2.166;2023-02-26T15:38:01;20.25;;;14.50;;
63010;SDS011;49100;48.842;2.166;2023-02-26T15:40:46;28.00;;;18.50;;
63010;SDS011;49100;48.842;2.166;2023-02-26T15:43:32;16.75;;;15.00;;
63010;SDS011;49100;48.842;2.166;2023-02-26T15:46:16;19.25;;;13.50;;
63010;SDS011;49100;48.842;2.166;2023-02-26T15:49:11;19.50;;;12.25;;
63010;SDS011;49100;48.842;2.166;2023-02-26T15:51:56;15.75;;;12.50;;
63010;SDS011;49100;48.842;2.166;2023-02-26T15:54:45;15.25;;;11.00;;
63010;SDS011;49100;48.842;2.166;2023-02-26T15:57:30;18.25;;;12.75;;
63010;SDS011;49100;48.842;2.166;2023-02-26T16:00:16;21.75;;;13.75;;
63010;SDS011;49100;48.842;2.166;2023-02-26T16:03:00;16.50;;;12.75;;
63010;SDS011;49100;48.842;2.166;2023-02-26T16:05:45;13.50;;;6.50;;
63010;SDS011;49100;48.842;2.166;2023-02-26T16:08:31;18.75;;;12.00;;
63010;SDS011;49100;48.842;2.166;2023-02-26T16:11:15;18.25;;;9.50;;
63010;SDS011;49100;48.842;2.166;2023-02-26T16:14:00;13.00;;;10.00;;
63010;SDS011;49100;48.842;2.166;2023-02-26T16:16:47;22.25;;;14.00;;
63010;SDS011;49100;48.842;2.166;2023-02-26T16:19:34;13.75;;;8.75;;
63010;SDS011;49100;48.842;2.166;2023-02-26T16:22:26;13.75;;;11.00;;
63010;SDS011;49100;48.842;2.166;2023-02-26T16:28:20;14.75;;;12.50;;
63010;SDS011;49100;48.842;2.166;2023-02-26T16:31:03;15.50;;;12.25;;
63010;SDS011;49100;48.842;2.166;2023-02-26T16:33:53;21.00;;;15.75;;
63010;SDS011;49100;48.842;2.166;2023-02-26T16:36:39;13.50;;;11.75;;
63010;SDS011;49100;48.842;2.166;2023-02-26T16:39:25;17.25;;;12.75;;
63010;SDS011;49100;48.842;2.166;2023-02-26T16:48:21;17.25;;;10.50;;
63010;SDS011;49100;48.842;2.166;2023-02-26T16:51:15;15.00;;;10.75;;
63010;SDS011;49100;48.842;2.166;2023-02-26T16:54:00;20.25;;;12.50;;
63010;SDS011;49100;48.842;2.166;2023-02-26T16:56:50;24.50;;;20.75;;
63010;SDS011;49100;48.842;2.166;2023-02-26T16:59:36;35.50;;;31.75;;
63010;SDS011;49100;48.842;2.166;2023-02-26T17:02:28;31.25;;;24.25;;
63010;SDS011;49100;48.842;2.166;2023-02-26T17:10:48;26.25;;;23.50;;
63010;SDS011;49100;48.842;2.166;2023-02-26T17:13:33;32.75;;;22.00;;
63010;SDS011;49100;48.842;2.166;2023-02-26T17:16:18;24.75;;;17.25;;
63010;SDS011;49100;48.842;2.166;2023-02-26T17:19:05;22.50;;;19.50;;
63010;SDS011;49100;48.842;2.166;2023-02-26T17:21:53;20.75;;;18.50;;
63010;SDS011;49100;48.842;2.166;2023-02-26T17:24:40;25.25;;;17.75;;
63010;SDS011;49100;48.842;2.166;2023-02-26T17:27:32;19.50;;;15.00;;
63010;SDS011;49100;48.842;2.166;2023-02-26T17:30:18;18.25;;;15.00;;
63010;SDS011;49100;48.842;2.166;2023-02-26T17:33:03;21.75;;;11.75;;
63010;SDS011;49100;48.842;2.166;2023-02-26T17:35:50;19.00;;;11.75;;
63010;SDS011;49100;48.842;2.166;2023-02-26T17:38:35;18.25;;;12.25;;
63010;SDS011;49100;48.842;2.166;2023-02-26T17:41:19;11.50;;;4.00;;
63010;SDS011;49100;48.842;2.166;2023-02-26T17:44:04;20.75;;;12.00;;
63010;SDS011;49100;48.842;2.166;2023-02-26T17:46:48;19.75;;;12.50;;
63010;SDS011;49100;48.842;2.166;2023-02-26T17:49:32;22.00;;;12.25;;
63010;SDS011;49100;48.842;2.166;2023-02-26T17:52:17;20.50;;;10.50;;
63010;SDS011;49100;48.842;2.166;2023-02-26T17:55:01;15.75;;;13.25;;
63010;SDS011;49100;48.842;2.166;2023-02-26T17:57:46;20.00;;;14.00;;
63010;SDS011;49100;48.842;2.166;2023-02-26T18:00:30;22.75;;;16.00;;
63010;SDS011;49100;48.842;2.166;2023-02-26T18:03:17;16.00;;;11.75;;
63010;SDS011;49100;48.842;2.166;2023-02-26T18:06:01;25.25;;;15.50;;
63010;SDS011;49100;48.842;2.166;2023-02-26T18:08:46;20.00;;;17.75;;
63010;SDS011;49100;48.842;2.166;2023-02-26T18:11:31;20.75;;;16.00;;
63010;SDS011;49100;48.842;2.166;2023-02-26T18:14:16;28.25;;;20.00;;
63010;SDS011;49100;48.842;2.166;2023-02-26T18:17:00;22.50;;;16.25;;
63010;SDS011;49100;48.842;2.166;2023-02-26T18:19:45;29.00;;;23.25;;
63010;SDS011;49100;48.842;2.166;2023-02-26T18:22:32;27.75;;;21.50;;
63010;SDS011;49100;48.842;2.166;2023-02-26T18:25:16;24.25;;;20.50;;
63010;SDS011;49100;48.842;2.166;2023-02-26T18:28:01;21.50;;;17.75;;
63010;SDS011;49100;48.842;2.166;2023-02-26T18:30:45;23.25;;;21.50;;
63010;SDS011;49100;48.842;2.166;2023-02-26T18:33:30;25.75;;;18.75;;
63010;SDS011;49100;48.842;2.166;2023-02-26T18:36:22;27.75;;;18.25;;
63010;SDS011;49100;48.842;2.166;2023-02-26T18:39:12;16.25;;;14.00;;
63010;SDS011;49100;48.842;2.166;2023-02-26T18:41:58;18.25;;;14.00;;
63010;SDS011;49100;48.842;2.166;2023-02-26T18:44:43;21.25;;;18.00;;
63010;SDS011;49100;48.842;2.166;2023-02-26T18:47:27;22.00;;;16.00;;
63010;SDS011;49100;48.842;2.166;2023-02-26T18:50:13;19.75;;;13.75;;
63010;SDS011;49100;48.842;2.166;2023-02-26T18:52:57;25.00;;;17.00;;
63010;SDS011;49100;48.842;2.166;2023-02-26T18:55:42;27.75;;;18.75;;
63010;SDS011;49100;48.842;2.166;2023-02-26T18:58:26;19.25;;;15.50;;
63010;SDS011;49100;48.842;2.166;2023-02-26T19:01:11;17.50;;;14.25;;
63010;SDS011;49100;48.842;2.166;2023-02-26T19:03:55;19.00;;;12.75;;
63010;SDS011;49100;48.842;2.166;2023-02-26T19:06:40;18.25;;;16.75;;
63010;SDS011;49100;48.842;2.166;2023-02-26T19:09:24;13.75;;;10.00;;
63010;SDS011;49100;48.842;2.166;2023-02-26T19:12:09;21.00;;;11.00;;
63010;SDS011;49100;48.842;2.166;2023-02-26T19:15:00;20.50;;;13.25;;
63010;SDS011;49100;48.842;2.166;2023-02-26T19:17:44;23.75;;;13.75;;
63010;SDS011;49100;48.842;2.166;2023-02-26T19:20:29;15.25;;;11.00;;
63010;SDS011;49100;48.842;2.166;2023-02-26T19:23:13;32.00;;;28.25;;
63010;SDS011;49100;48.842;2.166;2023-02-26T19:25:58;21.00;;;14.50;;
63010;SDS011;49100;48.842;2.166;2023-02-26T19:28:42;17.25;;;12.75;;
63010;SDS011;49100;48.842;2.166;2023-02-26T19:31:27;23.75;;;16.00;;
63010;SDS011;49100;48.842;2.166;2023-02-26T19:34:12;18.25;;;14.50;;
63010;SDS011;49100;48.842;2.166;2023-02-26T19:36:57;20.00;;;16.75;;
63010;SDS011;49100;48.842;2.166;2023-02-26T19:39:41;22.75;;;16.00;;
63010;SDS011;49100;48.842;2.166;2023-02-26T19:42:26;23.00;;;15.50;;